Terminal Aerodrome Forecast
Issued by NWS

Home | Current Version | Previous Version | Text Only | Print | Product List | Glossary On
Versions: 1 2 3 4 5 6 7 8 9 10
000
FTUS44 KEPZ 261100
TAFDMN
TAF
KDMN 261123Z 2612/2712 23007KT P6SM -RA BKN040 OVC080
      TEMPO 2612/2616 4SM -SHRASN BKN030 OVC080
     FM261700 27017G27KT P6SM FEW025 BKN200
     FM262300 28012G22KT P6SM FEW080 SCT120
     FM270600 36006KT P6SM FEW110=

USA.gov is the U.S. government's official web portal to all federal, state and local government web resources and services.